Megalon — 3ETX2 — position and weather

sailwx.info

Track history (hours):
 
Tides and Currents Weather Stations Pressure Air Temp Water Temp Dewpoint Dewpoint Depression Visibility Wind Speed Wind Dir Waves Ship Positions

Megalon

Last reported at 2016-Aug-20 03:26 UTC. Time now 2016-Aug-28 06:57 UTC.
Position N 28°19' W 016°02'.
Warning: this ship's position is 8 days out of date.

Length 140 m; draft 8.5 m.

Type: Cargo ship. MMSI: 372427000.

Date/timePositionNaut miles runAvg speedWind from/ knotsBaromVisibWave heightAir tempDewpointWater temp
2016-Aug-20 03:26N 28°19' W 016°02'910.5
2016-Aug-20 02:33N 28°20' W 015°52'1212.3
2016-Aug-20 01:33N 28°16' W 015°38'1211.6
2016-Aug-20 00:33N 28°13' W 015°26'7 6.5
2016-Aug-19 23:33N 28°06' W 015°24'0 0.3
2016-Aug-19 22:29N 28°06' W 015°24'0 0.0
2016-Aug-19 21:32N 28°06' W 015°24'0 0.0
2016-Aug-19 20:32N 28°06' W 015°24'0 0.0
2016-Aug-19 19:32N 28°06' W 015°24'2 1.8
2016-Aug-19 18:33N 28°06' W 015°22'1111.1
2016-Aug-19 17:33N 27°57' W 015°15'1111.1
2016-Aug-19 16:33N 27°49' W 015°06'1211.9
2016-Aug-19 15:33N 27°43' W 014°54'2512.2
2016-Aug-19 13:30N 27°34' W 014°29'1212.2
2016-Aug-19 12:32N 27°28' W 014°17'50 2.6
2016-Aug-18 17:25N 27°04' W 013°28'0 0.0
2016-Aug-18 12:31N 27°04' W 013°28'0 0.0
2016-Aug-18 11:31N 27°04' W 013°28'0 0.0
2016-Aug-18 09:31N 27°04' W 013°28'1 1.2
2016-Aug-18 08:19N 27°02' W 013°28'0 0.0
2016-Aug-18 06:22N 27°02' W 013°28'0 0.0
2016-Aug-18 05:25N 27°02' W 013°28'0 0.0
2016-Aug-18 04:25N 27°02' W 013°28'0 0.0
2016-Aug-18 01:28N 27°02' W 013°28'0 0.0
2016-Aug-18 00:28N 27°02' W 013°28'0 0.0
2016-Aug-17 23:13N 27°02' W 013°28'0 0.0
2016-Aug-16 03:20N 27°02' W 013°28'3 0.1
2016-Aug-15 01:31N 27°00' W 013°30'0 0.0
2016-Aug-13 20:31N 27°00' W 013°30'0 0.0
2016-Aug-13 01:07N 27°00' W 013°30'0 0.0
2016-Aug-13 00:25N 27°00' W 013°30'0 0.0
2016-Aug-12 23:25N 27°00' W 013°30'0 0.0
2016-Aug-12 22:07N 27°00' W 013°30'0 0.0
2016-Aug-12 21:13N 27°00' W 013°30'0 0.0
2016-Aug-12 20:31N 27°00' W 013°30'0 0.0
2016-Aug-12 19:25N 27°00' W 013°30'0 0.0
2016-Aug-12 18:31N 27°00' W 013°30'0 0.0
2016-Aug-12 17:16N 27°00' W 013°30'0 0.0
2016-Aug-12 16:31N 27°00' W 013°30'0 0.0
2016-Aug-12 15:31N 27°00' W 013°30'0 0.0
2016-Aug-12 14:31N 27°00' W 013°30'0 0.0
2016-Aug-12 13:31N 27°00' W 013°30'0 0.0
2016-Aug-12 12:22N 27°00' W 013°30'0 0.0
2016-Aug-12 11:25N 27°00' W 013°30'0 0.0
2016-Aug-12 10:07N 27°00' W 013°30'0 0.0
2016-Aug-12 08:28N 27°00' W 013°30'0 0.0
2016-Aug-12 07:13N 27°00' W 013°30'0 0.0
2016-Aug-12 06:28N 27°00' W 013°30'0 0.0
2016-Aug-12 05:31N 27°00' W 013°30'0 0.0
2016-Aug-12 02:28N 27°00' W 013°30'0 0.0
2016-Aug-12 01:04N 27°00' W 013°30'0 0.0
2016-Aug-12 00:31N 27°00' W 013°30'0 0.0
2016-Aug-11 23:22N 27°00' W 013°30'0 0.0
2016-Aug-11 22:04N 27°00' W 013°30'0 0.0
2016-Aug-11 21:25N 27°00' W 013°30'0 0.0
2016-Aug-11 20:25N 27°00' W 013°30'0 0.0
2016-Aug-11 19:25N 27°00' W 013°30'0 0.0
2016-Aug-11 18:28N 27°00' W 013°30'0 0.0
2016-Aug-11 17:28N 27°00' W 013°30'0 0.0
2016-Aug-11 16:28N 27°00' W 013°30'0 0.0
2016-Aug-11 15:31N 27°00' W 013°30'0 0.0
2016-Aug-11 14:13N 27°00' W 013°30'0 0.0
2016-Aug-11 12:19N 27°00' W 013°30'0 0.0
2016-Aug-11 10:31N 27°00' W 013°30'0 0.0
2016-Aug-11 07:22N 27°00' W 013°30'0 0.0
2016-Aug-11 06:25N 27°00' W 013°30'0 0.0
2016-Aug-11 05:22N 27°00' W 013°30'0 0.0
2016-Aug-11 01:31N 27°00' W 013°30'0 0.0
2016-Aug-11 00:31N 27°00' W 013°30'0 0.0
2016-Aug-10 22:13N 27°00' W 013°30'0 0.0
2016-Aug-10 21:31N 27°00' W 013°30'0 0.0
2016-Aug-10 17:19N 27°00' W 013°30'0 0.0
2016-Aug-10 16:25N 27°00' W 013°30'0 0.0
2016-Aug-10 14:04N 27°00' W 013°30'0 0.1
2016-Aug-10 13:25N 27°00' W 013°30'0 0.0
2016-Aug-10 12:25N 27°00' W 013°30'0 0.0
2016-Aug-10 11:25N 27°00' W 013°30'0 0.0
2016-Aug-10 10:31N 27°00' W 013°30'0 0.0
2016-Aug-10 08:13N 27°00' W 013°30'0 0.0
2016-Aug-10 07:31N 27°00' W 013°30'0 0.0
2016-Aug-10 06:31N 27°00' W 013°30'0 0.0
2016-Aug-10 04:31N 27°00' W 013°30'  
Track history (hours):
 
Tides and Currents Weather Stations Pressure Air Temp Water Temp Dewpoint Dewpoint Depression Visibility Wind Speed Wind Dir Waves Ship Positions

Megalon

Last reported at 2016-Aug-20 03:26 UTC. Time now 2016-Aug-28 06:57 UTC.
Position N 28°19' W 016°02'.
Warning: this ship's position is 8 days out of date.

Length 140 m; draft 8.5 m.

Type: Cargo ship. MMSI: 372427000.

Date/timePositionNaut miles runAvg speedWind from/ knotsBaromVisibWave heightAir tempDewpointWater temp
2016-Aug-20 03:26N 28°19' W 016°02'910.5
2016-Aug-20 02:33N 28°20' W 015°52'1212.3
2016-Aug-20 01:33N 28°16' W 015°38'1211.6
2016-Aug-20 00:33N 28°13' W 015°26'7 6.5
2016-Aug-19 23:33N 28°06' W 015°24'0 0.3
2016-Aug-19 22:29N 28°06' W 015°24'0 0.0
2016-Aug-19 21:32N 28°06' W 015°24'0 0.0
2016-Aug-19 20:32N 28°06' W 015°24'0 0.0
2016-Aug-19 19:32N 28°06' W 015°24'2 1.8
2016-Aug-19 18:33N 28°06' W 015°22'1111.1
2016-Aug-19 17:33N 27°57' W 015°15'1111.1
2016-Aug-19 16:33N 27°49' W 015°06'1211.9
2016-Aug-19 15:33N 27°43' W 014°54'2512.2
2016-Aug-19 13:30N 27°34' W 014°29'1212.2
2016-Aug-19 12:32N 27°28' W 014°17'50 2.6
2016-Aug-18 17:25N 27°04' W 013°28'0 0.0
2016-Aug-18 12:31N 27°04' W 013°28'0 0.0
2016-Aug-18 11:31N 27°04' W 013°28'0 0.0
2016-Aug-18 09:31N 27°04' W 013°28'1 1.2
2016-Aug-18 08:19N 27°02' W 013°28'0 0.0
2016-Aug-18 06:22N 27°02' W 013°28'0 0.0
2016-Aug-18 05:25N 27°02' W 013°28'0 0.0
2016-Aug-18 04:25N 27°02' W 013°28'0 0.0
2016-Aug-18 01:28N 27°02' W 013°28'0 0.0
2016-Aug-18 00:28N 27°02' W 013°28'0 0.0
2016-Aug-17 23:13N 27°02' W 013°28'0 0.0
2016-Aug-16 03:20N 27°02' W 013°28'3 0.1
2016-Aug-15 01:31N 27°00' W 013°30'0 0.0
2016-Aug-13 20:31N 27°00' W 013°30'0 0.0
2016-Aug-13 01:07N 27°00' W 013°30'0 0.0
2016-Aug-13 00:25N 27°00' W 013°30'0 0.0
2016-Aug-12 23:25N 27°00' W 013°30'0 0.0
2016-Aug-12 22:07N 27°00' W 013°30'0 0.0
2016-Aug-12 21:13N 27°00' W 013°30'0 0.0
2016-Aug-12 20:31N 27°00' W 013°30'0 0.0
2016-Aug-12 19:25N 27°00' W 013°30'0 0.0
2016-Aug-12 18:31N 27°00' W 013°30'0 0.0
2016-Aug-12 17:16N 27°00' W 013°30'0 0.0
2016-Aug-12 16:31N 27°00' W 013°30'0 0.0
2016-Aug-12 15:31N 27°00' W 013°30'0 0.0
2016-Aug-12 14:31N 27°00' W 013°30'0 0.0
2016-Aug-12 13:31N 27°00' W 013°30'0 0.0
2016-Aug-12 12:22N 27°00' W 013°30'0 0.0
2016-Aug-12 11:25N 27°00' W 013°30'0 0.0
2016-Aug-12 10:07N 27°00' W 013°30'0 0.0
2016-Aug-12 08:28N 27°00' W 013°30'0 0.0
2016-Aug-12 07:13N 27°00' W 013°30'0 0.0
2016-Aug-12 06:28N 27°00' W 013°30'0 0.0
2016-Aug-12 05:31N 27°00' W 013°30'0 0.0
2016-Aug-12 02:28N 27°00' W 013°30'0 0.0
2016-Aug-12 01:04N 27°00' W 013°30'0 0.0
2016-Aug-12 00:31N 27°00' W 013°30'0 0.0
2016-Aug-11 23:22N 27°00' W 013°30'0 0.0
2016-Aug-11 22:04N 27°00' W 013°30'0 0.0
2016-Aug-11 21:25N 27°00' W 013°30'0 0.0
2016-Aug-11 20:25N 27°00' W 013°30'0 0.0
2016-Aug-11 19:25N 27°00' W 013°30'0 0.0
2016-Aug-11 18:28N 27°00' W 013°30'0 0.0
2016-Aug-11 17:28N 27°00' W 013°30'0 0.0
2016-Aug-11 16:28N 27°00' W 013°30'0 0.0
2016-Aug-11 15:31N 27°00' W 013°30'0 0.0
2016-Aug-11 14:13N 27°00' W 013°30'0 0.0
2016-Aug-11 12:19N 27°00' W 013°30'0 0.0
2016-Aug-11 10:31N 27°00' W 013°30'0 0.0
2016-Aug-11 07:22N 27°00' W 013°30'0 0.0
2016-Aug-11 06:25N 27°00' W 013°30'0 0.0
2016-Aug-11 05:22N 27°00' W 013°30'0 0.0
2016-Aug-11 01:31N 27°00' W 013°30'0 0.0
2016-Aug-11 00:31N 27°00' W 013°30'0 0.0
2016-Aug-10 22:13N 27°00' W 013°30'0 0.0
2016-Aug-10 21:31N 27°00' W 013°30'0 0.0
2016-Aug-10 17:19N 27°00' W 013°30'0 0.0
2016-Aug-10 16:25N 27°00' W 013°30'0 0.0
2016-Aug-10 14:04N 27°00' W 013°30'0 0.1
2016-Aug-10 13:25N 27°00' W 013°30'0 0.0
2016-Aug-10 12:25N 27°00' W 013°30'0 0.0
2016-Aug-10 11:25N 27°00' W 013°30'0 0.0
2016-Aug-10 10:31N 27°00' W 013°30'0 0.0
2016-Aug-10 08:13N 27°00' W 013°30'0 0.0
2016-Aug-10 07:31N 27°00' W 013°30'0 0.0
2016-Aug-10 06:31N 27°00' W 013°30'0 0.0
2016-Aug-10 04:31N 27°00' W 013°30'  

Dump ship's entire track history